createdAt,value
2022-08-29T00:02:48.415Z,87.95
2022-08-29T00:07:41.199Z,87.75
2022-08-29T00:12:31.403Z,85.78
2022-08-29T00:17:22.245Z,85.36
2022-08-29T00:22:12.398Z,85.96
2022-08-29T00:27:06.290Z,85.86
2022-08-29T00:31:56.984Z,83.67
2022-08-29T00:36:49.333Z,85.45
2022-08-29T00:41:39.631Z,84.52
2022-08-29T00:46:46.943Z,84.52
2022-08-29T00:51:36.647Z,83.38
2022-08-29T00:56:27.669Z,84.38
2022-08-29T01:01:17.842Z,86.80
2022-08-29T01:06:11.536Z,85.73
2022-08-29T01:11:14.040Z,86.94
2022-08-29T01:16:04.933Z,85.66
2022-08-29T01:21:01.721Z,86.94
2022-08-29T01:25:54.879Z,86.81
2022-08-29T01:30:59.591Z,87.15
2022-08-29T01:35:49.751Z,86.75
2022-08-29T01:40:39.314Z,85.24
2022-08-29T01:45:31.388Z,85.80
2022-08-29T01:50:21.817Z,86.35
2022-08-29T01:55:12.060Z,86.08
2022-08-29T02:00:01.557Z,86.17
2022-08-29T02:04:53.695Z,85.45
2022-08-29T02:09:45.572Z,85.24
2022-08-29T02:14:36.383Z,85.00
2022-08-29T02:19:26.008Z,84.74
2022-08-29T02:24:26.353Z,84.89
2022-08-29T02:29:18.663Z,84.90
2022-08-29T02:34:08.228Z,85.23
2022-08-29T02:38:57.959Z,86.23
2022-08-29T02:43:50.347Z,87.01
2022-08-29T02:49:00.438Z,87.97
2022-08-29T02:53:50.754Z,85.72
2022-08-29T02:58:40.078Z,86.40
2022-08-29T03:03:32.319Z,86.96
2022-08-29T03:08:21.752Z,87.12
2022-08-29T03:13:11.761Z,89.73
2022-08-29T03:18:01.567Z,86.69
2022-08-29T03:22:54.147Z,86.39
2022-08-29T03:27:43.965Z,86.25
2022-08-29T03:32:33.360Z,85.89
2022-08-29T03:37:22.857Z,85.63
2022-08-29T03:42:16.582Z,86.95
2022-08-29T03:47:06.184Z,86.17
2022-08-29T03:51:55.684Z,86.46
2022-08-29T03:56:46.175Z,86.10
2022-08-29T04:01:38.538Z,85.73
2022-08-29T04:06:28.952Z,86.68
2022-08-29T04:11:19.711Z,86.91
2022-08-29T04:16:12.129Z,86.66
2022-08-29T04:21:06.839Z,86.14
2022-08-29T04:26:18.828Z,87.29
2022-08-29T04:31:05.727Z,86.87
2022-08-29T04:35:55.429Z,87.14
2022-08-29T04:40:47.975Z,87.30
2022-08-29T04:45:40.418Z,87.51
2022-08-29T04:50:29.873Z,87.17
2022-08-29T04:55:22.640Z,87.75
2022-08-29T05:00:19.050Z,88.06
2022-08-29T05:05:09.390Z,87.66
2022-08-29T05:10:01.179Z,87.38
2022-08-29T05:14:50.786Z,86.93
2022-08-29T05:19:45.160Z,87.45
2022-08-29T05:24:37.349Z,88.47
2022-08-29T05:29:26.780Z,88.57
2022-08-29T05:34:33.862Z,89.16
2022-08-29T05:39:27.784Z,89.42
2022-08-29T05:44:17.550Z,88.87
2022-08-29T05:49:07.335Z,88.42
2022-08-29T05:53:56.684Z,88.80
2022-08-29T05:58:48.629Z,88.65
2022-08-29T06:03:38.108Z,90.26
2022-08-29T06:08:27.599Z,89.62
2022-08-29T06:13:17.382Z,89.51
2022-08-29T06:18:09.530Z,90.28
2022-08-29T06:22:58.913Z,90.63
2022-08-29T06:27:48.505Z,88.76
2022-08-29T06:32:37.934Z,88.51
2022-08-29T06:37:29.918Z,88.70
2022-08-29T06:42:23.903Z,87.28
2022-08-29T06:47:17.674Z,85.44
2022-08-29T06:52:07.412Z,83.23
2022-08-29T06:57:01.888Z,81.94
2022-08-29T07:01:51.823Z,82.90
2022-08-29T07:06:41.752Z,81.61
2022-08-29T07:11:34.020Z,81.52
2022-08-29T07:16:27.635Z,79.76
2022-08-29T07:21:20.907Z,79.85
2022-08-29T07:26:11.460Z,78.83
2022-08-29T07:31:00.916Z,77.99
2022-08-29T07:35:54.393Z,76.71
2022-08-29T07:40:43.982Z,75.66
2022-08-29T07:45:33.630Z,75.92
2022-08-29T07:50:23.276Z,76.19
2022-08-29T07:55:18.023Z,75.24
2022-08-29T08:00:09.887Z,73.65
2022-08-29T08:05:02.091Z,74.10
2022-08-29T08:09:52.272Z,72.13
2022-08-29T08:14:44.223Z,72.46
2022-08-29T08:19:34.139Z,72.09
2022-08-29T08:24:24.062Z,71.70
2022-08-29T08:29:13.721Z,68.24
2022-08-29T08:34:06.410Z,69.65
2022-08-29T08:38:56.492Z,70.13
2022-08-29T08:43:50.101Z,70.09
2022-08-29T08:48:41.843Z,69.75
2022-08-29T08:53:36.348Z,68.14
2022-08-29T08:58:31.179Z,66.29
2022-08-29T09:03:27.892Z,65.38
2022-08-29T09:08:23.103Z,65.54
2022-08-29T09:13:19.502Z,64.59
2022-08-29T09:18:13.466Z,63.51
2022-08-29T09:23:04.258Z,58.87
2022-08-29T09:27:53.695Z,59.05
2022-08-29T09:32:58.855Z,57.72
2022-08-29T09:37:57.361Z,54.79
2022-08-29T09:42:50.180Z,58.87
2022-08-29T09:47:40.490Z,54.77
2022-08-29T09:52:32.574Z,56.01
2022-08-29T09:57:24.302Z,59.08
2022-08-29T10:02:18.031Z,58.69
2022-08-29T10:07:12.231Z,58.21
2022-08-29T10:12:08.672Z,57.61
2022-08-29T10:17:22.315Z,57.78
2022-08-29T10:27:26.753Z,59.41
2022-08-29T10:32:27.601Z,59.56
2022-08-29T10:37:22.782Z,59.36
2022-08-29T10:42:19.483Z,59.37
2022-08-29T10:47:23.918Z,55.94
2022-08-29T10:52:25.039Z,57.50
2022-08-29T10:57:26.228Z,57.36
2022-08-29T11:02:24.891Z,58.21
2022-08-29T11:07:20.228Z,57.63
2022-08-29T11:12:17.296Z,56.66
2022-08-29T11:17:12.887Z,56.56
2022-08-29T11:22:04.250Z,54.00
2022-08-29T11:26:59.161Z,50.44
2022-08-29T11:31:52.685Z,52.76
2022-08-29T11:36:53.247Z,50.96
2022-08-29T11:41:44.971Z,46.86
2022-08-29T11:46:48.962Z,46.45
2022-08-29T11:51:44.094Z,52.48
2022-08-29T11:56:36.661Z,51.38
2022-08-29T12:01:56.448Z,48.99
2022-08-29T12:07:00.033Z,48.51
2022-08-29T12:12:21.192Z,48.83
2022-08-29T12:18:01.976Z,48.82
2022-08-29T12:22:59.402Z,50.57
2022-08-29T12:28:05.979Z,49.07
2022-08-29T12:33:08.900Z,50.06
2022-08-29T12:38:15.791Z,49.05
2022-08-29T12:43:22.784Z,48.70
2022-08-29T12:48:20.757Z,45.35
2022-08-29T12:53:20.576Z,45.36
2022-08-29T12:58:10.770Z,47.41
2022-08-29T13:03:09.607Z,48.55
2022-08-29T13:08:13.663Z,48.72
2022-08-29T13:13:09.570Z,48.26
2022-08-29T13:17:59.600Z,48.77
2022-08-29T13:22:49.422Z,49.22
2022-08-29T13:27:41.847Z,49.59
2022-08-29T13:32:32.463Z,49.36
2022-08-29T13:37:32.039Z,48.61
2022-08-29T13:42:26.973Z,48.15
2022-08-29T13:47:21.849Z,48.17
2022-08-29T13:52:13.059Z,48.84
2022-08-29T13:57:07.438Z,49.78
2022-08-29T14:02:13.389Z,49.43
2022-08-29T14:07:06.673Z,47.86
2022-08-29T14:11:57.236Z,49.75
2022-08-29T14:16:47.129Z,48.89
2022-08-29T14:21:37.350Z,48.78
2022-08-29T14:26:30.316Z,49.19
2022-08-29T14:31:22.783Z,49.09
2022-08-29T14:36:12.710Z,49.70
2022-08-29T14:41:02.659Z,50.17
2022-08-29T14:45:55.040Z,48.97
2022-08-29T14:50:44.716Z,49.75
2022-08-29T14:55:34.714Z,49.85
2022-08-29T15:00:26.615Z,49.61
2022-08-29T15:05:19.560Z,49.91
2022-08-29T15:10:14.404Z,50.00
2022-08-29T15:15:05.871Z,50.22
2022-08-29T15:25:13.688Z,49.89
2022-08-29T15:30:03.428Z,49.90
2022-08-29T15:34:53.605Z,50.61
2022-08-29T15:39:43.566Z,49.97
2022-08-29T15:44:35.560Z,50.55
2022-08-29T15:49:25.959Z,52.01
2022-08-29T15:54:15.600Z,51.82
2022-08-29T15:59:05.917Z,50.59
2022-08-29T16:03:58.865Z,50.10
2022-08-29T16:08:48.533Z,49.89
2022-08-29T16:13:44.919Z,51.30
2022-08-29T16:18:34.559Z,50.76
2022-08-29T16:23:30.487Z,51.59
2022-08-29T16:28:21.307Z,53.04
2022-08-29T16:33:10.829Z,54.13
2022-08-29T16:38:03.166Z,54.54
2022-08-29T16:42:55.851Z,55.09
2022-08-29T16:47:45.255Z,56.01
2022-08-29T16:57:15.366Z,54.98
2022-08-29T17:02:06.179Z,55.86
2022-08-29T17:06:56.960Z,55.26
2022-08-29T17:11:44.604Z,55.48
2022-08-29T17:16:37.272Z,55.55
2022-08-29T17:21:27.216Z,56.13
2022-08-29T17:26:21.944Z,56.13
2022-08-29T17:31:11.980Z,56.41
2022-08-29T17:36:05.931Z,57.52
2022-08-29T17:41:00.258Z,58.45
2022-08-29T17:45:50.912Z,58.96
2022-08-29T17:50:41.322Z,60.39
2022-08-29T17:55:33.847Z,60.85
2022-08-29T18:00:25.115Z,62.35
2022-08-29T18:05:15.660Z,62.98
2022-08-29T18:10:05.605Z,64.18
2022-08-29T18:14:58.374Z,65.30
2022-08-29T18:19:47.990Z,66.22
2022-08-29T18:24:37.824Z,66.87
2022-08-29T18:29:27.606Z,68.33
2022-08-29T18:34:20.190Z,69.56
2022-08-29T18:39:11.791Z,70.07
2022-08-29T18:44:02.036Z,71.07
2022-08-29T18:48:51.759Z,72.51
2022-08-29T18:53:44.201Z,73.35
2022-08-29T18:58:36.581Z,75.17
2022-08-29T19:03:26.437Z,76.78
2022-08-29T19:08:16.466Z,77.77
2022-08-29T19:13:10.332Z,79.54
2022-08-29T19:18:00.456Z,80.92
2022-08-29T19:22:51.775Z,81.40
2022-08-29T19:27:44.106Z,83.04
2022-08-29T19:32:37.440Z,83.93
2022-08-29T19:37:28.001Z,85.08
2022-08-29T19:42:19.768Z,85.99
2022-08-29T19:47:09.665Z,87.14
2022-08-29T19:52:02.263Z,87.48
2022-08-29T19:56:51.876Z,88.01
2022-08-29T20:01:41.732Z,88.94
2022-08-29T20:06:32.055Z,89.58
2022-08-29T20:11:26.984Z,89.84
2022-08-29T20:16:18.716Z,90.57
2022-08-29T20:21:08.791Z,91.16
2022-08-29T20:26:01.641Z,91.85
2022-08-29T20:30:54.255Z,92.38
2022-08-29T20:35:56.386Z,93.16
2022-08-29T20:40:47.117Z,93.41
2022-08-29T20:45:36.819Z,94.57
2022-08-29T20:55:38.912Z,95.08
2022-08-29T21:00:29.057Z,96.02
2022-08-29T21:05:31.612Z,96.06
2022-08-29T21:10:24.587Z,96.66
2022-08-29T21:15:15.102Z,96.38
2022-08-29T21:20:05.214Z,96.50
2022-08-29T21:24:57.084Z,96.09
2022-08-29T21:29:49.401Z,96.25
2022-08-29T21:34:39.261Z,96.22
2022-08-29T21:39:30.507Z,96.44
2022-08-29T21:44:20.165Z,96.59
2022-08-29T21:49:17.028Z,96.66
2022-08-29T21:54:12.744Z,96.89
2022-08-29T21:59:05.625Z,97.28
2022-08-29T22:03:56.144Z,97.65
2022-08-29T22:08:49.298Z,98.01
2022-08-29T22:13:39.878Z,98.14
2022-08-29T22:18:29.861Z,98.78
2022-08-29T22:23:21.867Z,98.59
2022-08-29T22:28:14.725Z,98.42
2022-08-29T22:33:05.267Z,99.04
2022-08-29T22:37:54.929Z,99.69
2022-08-29T22:42:46.177Z,100.00
2022-08-29T22:47:38.770Z,100.00
2022-08-29T22:52:28.384Z,100.00
2022-08-29T22:57:20.071Z,100.00
2022-08-29T23:02:11.287Z,100.00
2022-08-29T23:07:04.418Z,100.00
2022-08-29T23:11:54.431Z,100.00
2022-08-29T23:16:44.059Z,100.00
2022-08-29T23:21:39.689Z,100.00
2022-08-29T23:26:32.594Z,100.00
2022-08-29T23:31:24.675Z,100.00
2022-08-29T23:36:14.787Z,100.00
2022-08-29T23:41:04.958Z,100.00
2022-08-29T23:45:58.370Z,100.00
2022-08-29T23:50:49.074Z,100.00
2022-08-29T23:55:38.881Z,100.00
